Bookmark and Share
Track history (hours):
 

Atlas

Last reported at 2012-Oct-03 16:26 UTC. Time now 2014-Apr-19 17:11 UTC.
Position N 59°38' E 021°16'.
Warning: this ship's position is years out of date!

Length 30 m; draft 5.2 m.

Type: Tug. MMSI: 230940670.

NotesDate/timePositionNaut miles runAvg speedWind from/ knotsBaromVisibWave heightAir tempDewpointWater temp
2012-Oct-03 16:26N 59°38' E 021°16'1111.0
2012-Oct-03 15:25N 59°37' E 021°38'105 3.5
2012-Oct-02 09:33N 60°10' E 024°56'2 2.1
2012-Oct-02 08:33N 60°08' E 024°54'2 2.1
2012-Oct-02 07:32N 60°10' E 024°56'0 0.0
2012-Oct-02 06:32N 60°10' E 024°56'0 0.0
2012-Oct-02 05:32N 60°10' E 024°56'0 0.0
2012-Oct-02 04:32N 60°10' E 024°56'0 0.0
2012-Oct-01 15:32N 60°10' E 024°56'0 0.0
2012-Oct-01 14:32N 60°10' E 024°56'0 0.0
2012-Oct-01 13:32N 60°10' E 024°56'0 0.0
2012-Oct-01 11:29N 60°10' E 024°56'0 0.0
2012-Oct-01 05:25N 60°10' E 024°56'0 0.0
2012-Oct-01 04:31N 60°10' E 024°56'0 0.0
2012-Sep-30 15:28N 60°10' E 024°56'0 0.0
2012-Sep-30 14:31N 60°10' E 024°56'0 0.0
2012-Sep-30 13:28N 60°10' E 024°56'0 0.0
2012-Sep-30 12:31N 60°10' E 024°56'0 0.2
2012-Sep-30 10:35N 60°09' E 024°55'4 0.3
2012-Sep-29 20:33N 60°07' E 025°01'4 3.4
2012-Sep-29 19:28N 60°10' E 024°56'0 0.0
2012-Sep-29 18:31N 60°10' E 024°56'0 0.0
2012-Sep-29 17:31N 60°10' E 024°56'0 0.0
2012-Sep-29 15:31N 60°10' E 024°56'0 0.0
2012-Sep-29 14:31N 60°10' E 024°56'0 0.0
2012-Sep-29 13:31N 60°10' E 024°56'0 0.0
2012-Sep-29 12:31N 60°10' E 024°56'0 0.0
2012-Sep-29 11:31N 60°10' E 024°56'0 0.0
2012-Sep-29 10:31N 60°10' E 024°56'0 0.0
2012-Sep-29 09:31N 60°10' E 024°56'0 0.0
2012-Sep-29 08:31N 60°10' E 024°56'0 0.0
2012-Sep-29 07:31N 60°10' E 024°56'0 0.0
2012-Sep-29 06:31N 60°10' E 024°56'0 0.0
2012-Sep-29 05:31N 60°10' E 024°56'0 0.0
2012-Sep-29 04:34N 60°10' E 024°56'0 0.0
2012-Sep-29 02:28N 60°10' E 024°56'0 0.0
2012-Sep-29 00:31N 60°10' E 024°56'0 0.0
2012-Sep-28 23:25N 60°10' E 024°56'0 0.0
2012-Sep-28 22:28N 60°10' E 024°56'0 0.0
2012-Sep-28 21:28N 60°10' E 024°56'0 0.0
2012-Sep-28 20:25N 60°10' E 024°56'0 0.0
2012-Sep-28 19:25N 60°10' E 024°56'0 0.0
2012-Sep-28 15:31N 60°10' E 024°56'0 0.0
2012-Sep-28 14:31N 60°10' E 024°56'0 0.0
2012-Sep-28 13:31N 60°10' E 024°56'0 0.0
2012-Sep-28 12:31N 60°10' E 024°56'0 0.0
2012-Sep-28 11:31N 60°10' E 024°56'0 0.0
2012-Sep-28 10:34N 60°10' E 024°56'0 0.0
2012-Sep-28 09:31N 60°10' E 024°56'0 0.0
2012-Sep-28 08:31N 60°10' E 024°56'0 0.0
2012-Sep-28 07:31N 60°10' E 024°56'0 0.0
2012-Sep-28 06:31N 60°10' E 024°56'0 0.0
2012-Sep-28 05:31N 60°10' E 024°56'0 0.0
2012-Sep-28 04:34N 60°10' E 024°56'0 0.0
2012-Sep-28 02:28N 60°10' E 024°56'0 0.0
2012-Sep-28 01:25N 60°10' E 024°56'0 0.0
2012-Sep-27 22:28N 60°10' E 024°56'0 0.0
2012-Sep-27 21:28N 60°10' E 024°56'0 0.0
2012-Sep-27 20:28N 60°10' E 024°56'0 0.0
2012-Sep-27 19:28N 60°10' E 024°56'0 0.0
2012-Sep-27 18:28N 60°10' E 024°56'0 0.0
2012-Sep-27 17:31N 60°10' E 024°56'0 0.0
2012-Sep-27 16:31N 60°10' E 024°56'0 0.0
2012-Sep-27 15:31N 60°10' E 024°56'0 0.0
2012-Sep-27 14:31N 60°10' E 024°56'0 0.0
2012-Sep-27 13:31N 60°10' E 024°56'0 0.0
2012-Sep-27 12:31N 60°10' E 024°56'0 0.0
2012-Sep-27 11:31N 60°10' E 024°56'0 0.0
2012-Sep-27 10:34N 60°10' E 024°56'0 0.0
2012-Sep-27 09:31N 60°10' E 024°56'0 0.0
2012-Sep-27 08:31N 60°10' E 024°56'0 0.0
2012-Sep-27 07:31N 60°10' E 024°56'0 0.0
2012-Sep-27 06:31N 60°10' E 024°56'0 0.0
2012-Sep-27 05:31N 60°10' E 024°56'0 0.0
2012-Sep-27 04:37N 60°10' E 024°56'0 0.0
2012-Sep-27 03:31N 60°10' E 024°56'0 0.0
2012-Sep-27 02:31N 60°10' E 024°56'0 0.0
2012-Sep-27 01:31N 60°10' E 024°56'0 0.0
2012-Sep-27 00:31N 60°10' E 024°56'0 0.0
2012-Sep-26 23:31N 60°10' E 024°56'0 0.0
2012-Sep-26 22:31N 60°10' E 024°56'0 0.0
2012-Sep-26 21:31N 60°10' E 024°56'0 0.0
2012-Sep-26 20:31N 60°10' E 024°56'0 0.0
2012-Sep-26 19:31N 60°10' E 024°56'0 0.0
2012-Sep-26 18:28N 60°10' E 024°56'0 0.0
2012-Sep-26 17:31N 60°10' E 024°56'0 0.0
2012-Sep-26 16:31N 60°10' E 024°56'0 0.0
2012-Sep-26 15:31N 60°10' E 024°56'0 0.0
2012-Sep-26 14:31N 60°10' E 024°56'0 0.0
2012-Sep-26 13:31N 60°10' E 024°56'0 0.0
2012-Sep-26 12:31N 60°10' E 024°56'0 0.0
2012-Sep-26 11:34N 60°10' E 024°56'0 0.0
2012-Sep-26 10:34N 60°10' E 024°56'0 0.0
2012-Sep-26 09:31N 60°10' E 024°56'0 0.0
2012-Sep-26 08:34N 60°10' E 024°56'0 0.0
2012-Sep-26 07:31N 60°10' E 024°56'0 0.0
2012-Sep-26 06:34N 60°10' E 024°56'0 0.0
2012-Sep-26 05:31N 60°10' E 024°56'0 0.0
2012-Sep-26 04:36N 60°10' E 024°56'0 0.0
2012-Sep-26 03:33N 60°10' E 024°56'0 0.0
2012-Sep-26 02:33N 60°10' E 024°56'0 0.0
2012-Sep-26 01:33N 60°10' E 024°56'0 0.0
2012-Sep-26 00:31N 60°10' E 024°56'0 0.0
2012-Sep-25 23:33N 60°10' E 024°56'0 0.0
2012-Sep-25 22:33N 60°10' E 024°56'0 0.0
2012-Sep-25 21:33N 60°10' E 024°56'0 0.0
2012-Sep-25 20:33N 60°10' E 024°56'0 0.0
2012-Sep-25 19:33N 60°10' E 024°56'0 0.0
2012-Sep-25 18:34N 60°10' E 024°56'0 0.0
2012-Sep-25 17:34N 60°10' E 024°56'0 0.0
2012-Sep-25 16:33N 60°10' E 024°56'0 0.0
2012-Sep-25 15:33N 60°10' E 024°56'0 0.0
2012-Sep-25 14:33N 60°10' E 024°56'0 0.0
2012-Sep-25 13:33N 60°10' E 024°56'0 0.0
2012-Sep-25 12:33N 60°10' E 024°56'0 0.0
2012-Sep-25 11:33N 60°10' E 024°56'0 0.0
2012-Sep-25 10:33N 60°10' E 024°56'0 0.0
2012-Sep-25 09:33N 60°10' E 024°56'0 0.0
2012-Sep-25 08:33N 60°10' E 024°56'0 0.0
2012-Sep-25 07:33N 60°10' E 024°56'0 0.0
2012-Sep-25 06:30N 60°10' E 024°56'0 0.0
2012-Sep-25 05:30N 60°10' E 024°56'0 0.0
2012-Sep-25 04:36N 60°10' E 024°56'0 0.0
2012-Sep-25 03:33N 60°10' E 024°56'0 0.0
2012-Sep-25 02:33N 60°10' E 024°56'6 0.5
2012-Sep-24 14:31N 60°04' E 024°58'  

Dump ship's entire track history

sailing weather and tide predictions

Atlas — OJOJ — position and weather